Time;durP1;ratioP1;P1;durP2;ratioP2;P2;SDS_P1;SDS_P2;PMS_P1;PMS_P2;Temp;Humidity;BMP_temperature;BMP_pressure;BME280_temperature;BME280_humidity;BME280_pressure;Samples;Min_cycle;Max_cycle;Signal;HPM_P1;HPM_P2
2023/11/29 00:01:12;;;;;;;9.77;8.15;;;;;;;-145.63;51.26;39161.13;5061392;28;20021;-65
2023/11/29 00:03:38;;;;;;;9.63;7.65;;;;;;;-145.63;51.46;39141.59;5079716;28;20028;-65
2023/11/29 00:06:04;;;;;;;8.80;7.88;;;;;;;-145.63;51.49;39129.84;5069658;28;20029;-65
2023/11/29 00:08:30;;;;;;;8.98;7.70;;;;;;;-145.63;51.12;39153.31;5069172;28;20021;-66
2023/11/29 00:10:56;;;;;;;8.18;7.38;;;;;;;-145.63;50.95;39149.41;5078973;28;20041;-66
2023/11/29 00:13:22;;;;;;;45.60;27.80;;;;;;;-145.63;50.38;39125.94;5062309;28;20028;-66
2023/11/29 00:15:48;;;;;;;9.40;8.38;;;;;;;-145.63;50.80;39133.75;5079370;28;20055;-65
2023/11/29 00:18:14;;;;;;;11.77;8.93;;;;;;;-145.63;51.59;39125.94;5083827;28;20169;-65
2023/11/29 00:20:40;;;;;;;11.07;8.65;;;;;;;-145.63;51.54;39141.59;5079418;28;20040;-66
2023/11/29 00:23:06;;;;;;;8.93;8.00;;;;;;;-145.63;51.76;39161.13;5086025;28;20262;-65
2023/11/29 00:25:31;;;;;;;9.88;8.45;;;;;;;-145.63;50.31;39123.97;5086209;28;20024;-66
2023/11/29 00:27:57;;;;;;;8.95;7.57;;;;;;;-145.63;50.55;39137.69;5048205;28;20033;-66
2023/11/29 00:30:23;;;;;;;8.65;7.82;;;;;;;-145.63;51.43;39161.13;5081002;28;20024;-65
2023/11/29 00:32:49;;;;;;;9.07;8.18;;;;;;;-145.63;50.93;39157.22;5084334;28;20028;-65
2023/11/29 00:35:17;;;;;;;9.35;8.32;;;;;;;-145.63;49.95;39137.69;5091744;28;20040;-65
2023/11/29 00:37:43;;;;;;;11.35;8.35;;;;;;;-145.63;50.21;39129.84;5104730;28;20024;-66
2023/11/29 00:40:09;;;;;;;9.98;8.52;;;;;;;-145.63;50.62;39143.53;5085741;28;20422;-64
2023/11/29 00:42:35;;;;;;;9.43;8.43;;;;;;;-145.63;50.05;39168.97;5069145;28;20084;-66
2023/11/29 00:45:00;;;;;;;9.75;8.25;;;;;;;-145.63;49.77;39155.28;5093171;28;20220;-65
2023/11/29 00:47:26;;;;;;;9.82;8.27;;;;;;;-145.63;49.48;39161.13;5085785;28;20069;-65
2023/11/29 00:49:52;;;;;;;9.38;8.35;;;;;;;-145.63;49.78;39153.31;5083668;28;20024;-67
2023/11/29 00:52:17;;;;;;;9.73;8.05;;;;;;;-145.63;49.84;39129.84;5065541;28;20040;-66
2023/11/29 00:54:43;;;;;;;9.82;7.70;;;;;;;-145.63;49.34;39168.97;5098534;28;20085;-67
2023/11/29 00:57:08;;;;;;;9.63;7.90;;;;;;;-145.63;50.24;39151.38;5085418;28;20026;-66
2023/11/29 00:59:34;;;;;;;11.45;8.10;;;;;;;-145.63;50.14;39174.84;5066252;28;20037;-66
2023/11/29 01:02:00;;;;;;;8.20;7.40;;;;;;;-145.63;48.89;39114.22;5068314;28;20037;-65
2023/11/29 01:04:25;;;;;;;8.25;7.22;;;;;;;-145.63;49.63;39167.00;5085595;28;20324;-65
2023/11/29 01:06:51;;;;;;;7.97;6.97;;;;;;;-145.63;48.98;39137.69;5085097;28;20028;-66
2023/11/29 01:09:17;;;;;;;7.63;6.75;;;;;;;-145.63;49.32;39122.03;5071494;28;20020;-65
2023/11/29 01:11:43;;;;;;;7.78;6.97;;;;;;;-145.63;49.82;39129.84;5072879;28;20025;-68
2023/11/29 01:14:09;;;;;;;7.35;6.60;;;;;;;-145.63;49.16;39170.91;5080679;28;20052;-66
2023/11/29 01:16:34;;;;;;;6.60;6.00;;;;;;;-145.63;48.84;39157.22;5065194;28;20028;-67
2023/11/29 01:19:00;;;;;;;8.15;6.22;;;;;;;-145.63;49.06;39135.72;5080954;28;20021;-66
2023/11/29 01:21:27;;;;;;;6.47;5.88;;;;;;;-145.63;49.48;39170.91;5074839;28;20063;-66
2023/11/29 01:23:53;;;;;;;6.53;5.82;;;;;;;-145.63;48.72;39172.88;5080994;28;20086;-67
2023/11/29 01:26:18;;;;;;;7.13;6.20;;;;;;;-145.63;48.78;39122.03;5079454;28;20388;-66
2023/11/29 01:28:44;;;;;;;6.65;6.05;;;;;;;-145.63;48.91;39149.41;5077612;28;20016;-67
2023/11/29 01:31:10;;;;;;;7.18;6.22;;;;;;;-145.63;48.99;39153.31;5064710;28;20028;-66
2023/11/29 01:33:36;;;;;;;7.60;6.85;;;;;;;-145.63;48.81;39168.97;5068502;28;20029;-66
2023/11/29 01:36:11;;;;;;;7.30;6.60;;;;;;;-145.63;48.99;39182.66;5075484;28;20033;-67
2023/11/29 01:38:37;;;;;;;7.50;5.88;;;;;;;-145.63;49.23;39127.91;5075435;28;20072;-67
2023/11/29 01:41:03;;;;;;;8.05;6.18;;;;;;;-145.63;49.19;39153.31;5072519;28;20298;-64
2023/11/29 01:43:30;;;;;;;7.30;6.60;;;;;;;-145.63;49.68;39172.88;5064774;28;20088;-65
2023/11/29 01:45:56;;;;;;;8.25;6.95;;;;;;;-145.63;49.92;39122.03;5083177;28;20033;-65
2023/11/29 01:48:23;;;;;;;11.20;7.32;;;;;;;-145.63;50.47;39131.81;5084229;28;20074;-65
2023/11/29 01:50:52;;;;;;;11.00;7.43;;;;;;;-145.63;50.59;39133.75;5074991;28;20289;-64
2023/11/29 01:53:21;;;;;;;8.68;7.03;;;;;;;-145.63;50.68;39155.28;5069121;28;20029;-65
2023/11/29 01:55:50;;;;;;;8.95;7.13;;;;;;;-145.63;49.59;39118.13;5083593;28;20043;-65
2023/11/29 01:58:26;;;;;;;8.43;7.40;;;;;;;-145.63;50.04;39176.78;5076157;28;20059;-65
2023/11/29 02:00:52;;;;;;;8.90;7.03;;;;;;;-145.63;49.86;39123.97;5065115;28;20100;-66
2023/11/29 02:03:19;;;;;;;7.88;7.00;;;;;;;-145.63;50.57;39147.44;5077221;28;20088;-65
2023/11/29 02:05:46;;;;;;;7.55;6.55;;;;;;;-145.63;50.24;39145.50;5082885;28;20028;-66
2023/11/29 02:08:14;;;;;;;7.75;6.63;;;;;;;-145.63;49.65;39120.06;5083730;28;20028;-66
2023/11/29 02:10:40;;;;;;;8.15;7.20;;;;;;;-145.63;50.80;39180.69;5082624;28;20380;-65
2023/11/29 02:13:08;;;;;;;8.25;7.45;;;;;;;-145.63;50.01;39163.09;5083939;28;20024;-63
2023/11/29 02:15:36;;;;;;;9.73;7.20;;;;;;;-145.63;49.78;39129.84;5083729;28;20025;-64
2023/11/29 02:18:04;;;;;;;9.48;7.60;;;;;;;-145.63;49.74;39116.16;5073098;28;20077;-63
2023/11/29 02:20:31;;;;;;;8.23;7.40;;;;;;;-145.63;49.69;39133.75;5076657;28;20029;-65
2023/11/29 02:23:10;;;;;;;11.43;7.30;;;;;;;-145.63;49.90;39127.91;5083319;28;20047;-64
2023/11/29 02:25:36;;;;;;;7.45;6.75;;;;;;;-145.63;50.13;39133.75;5082377;28;20239;-66
2023/11/29 02:28:02;;;;;;;7.20;6.50;;;;;;;-145.63;49.52;39133.75;5082377;28;20028;-66
2023/11/29 02:30:28;;;;;;;15.50;10.95;;;;;;;-145.63;49.73;39145.50;5068317;28;20079;-65
2023/11/29 02:32:53;;;;;;;7.05;6.20;;;;;;;-145.63;49.30;39145.50;5072716;28;20031;-64
2023/11/29 02:35:19;;;;;;;6.90;6.20;;;;;;;-145.63;49.57;39145.50;5083140;28;20043;-64
2023/11/29 02:37:45;;;;;;;8.13;6.80;;;;;;;-145.63;48.69;39133.75;5083375;28;20040;-65
2023/11/29 02:40:11;;;;;;;8.02;6.65;;;;;;;-145.63;48.80;39131.81;5062679;28;20305;-65
2023/11/29 02:42:36;;;;;;;7.63;6.93;;;;;;;-145.63;49.30;39122.03;5078562;28;20268;-64
2023/11/29 02:45:02;;;;;;;7.28;6.15;;;;;;;-145.63;48.24;39168.97;5083256;28;20039;-65
2023/11/29 02:47:31;;;;;;;9.40;6.63;;;;;;;-145.63;48.37;39149.41;5077237;28;20066;-65
2023/11/29 02:49:57;;;;;;;7.03;6.32;;;;;;;-145.63;49.19;39129.84;5077138;28;20052;-64
2023/11/29 02:52:22;;;;;;;7.68;6.88;;;;;;;-145.63;48.49;39116.16;5083328;28;20024;-64
2023/11/29 02:54:48;;;;;;;7.97;6.68;;;;;;;-145.63;48.75;39125.94;5082808;28;20073;-64
2023/11/29 02:57:13;;;;;;;8.00;7.10;;;;;;;-145.63;48.97;39118.13;5071176;28;20029;-65
2023/11/29 02:59:39;;;;;;;8.05;7.25;;;;;;;-145.63;48.44;39147.44;5069447;28;20166;-65
2023/11/29 03:02:05;;;;;;;8.07;7.28;;;;;;;-145.63;48.35;39141.59;5067773;28;20032;-66
2023/11/29 03:04:30;;;;;;;11.15;7.88;;;;;;;-145.63;49.14;39114.22;5103428;28;20027;-65
2023/11/29 03:06:56;;;;;;;8.73;7.75;;;;;;;-145.63;49.34;39159.19;5083907;28;20221;-65
2023/11/29 03:09:22;;;;;;;9.32;8.30;;;;;;;-145.63;49.08;39231.53;5082953;28;20039;-64
2023/11/29 03:11:47;;;;;;;8.18;7.38;;;;;;;-145.63;48.40;39055.53;5074375;28;20021;-64
2023/11/29 03:14:13;;;;;;;8.55;7.75;;;;;;;-145.63;48.60;39145.50;5065943;28;20037;-64
2023/11/29 03:16:39;;;;;;;9.60;8.10;;;;;;;-145.63;48.50;39174.84;5082632;28;20032;-64
2023/11/29 03:19:04;;;;;;;9.13;8.23;;;;;;;-145.63;48.79;39125.94;5082519;28;20027;-65
2023/11/29 03:21:30;;;;;;;9.48;8.55;;;;;;;-145.63;48.21;39141.59;5068725;28;20039;-64
2023/11/29 03:23:56;;;;;;;10.40;9.30;;;;;;;-145.63;49.05;39135.72;5063664;28;20032;-64
2023/11/29 03:26:21;;;;;;;9.63;8.63;;;;;;;-145.63;48.69;39149.41;5081152;28;20320;-64
2023/11/29 03:28:47;;;;;;;9.55;8.63;;;;;;;-145.63;48.94;39137.69;5082495;28;20020;-65
2023/11/29 03:31:12;;;;;;;10.10;9.02;;;;;;;-145.63;48.58;39170.91;5082669;28;20024;-65
2023/11/29 03:33:38;;;;;;;10.10;9.02;;;;;;;-145.63;48.43;39137.69;5067193;28;20059;-65
2023/11/29 03:36:04;;;;;;;10.07;8.90;;;;;;;-145.63;48.03;39123.97;5072714;28;20028;-66
2023/11/29 03:38:30;;;;;;;9.90;8.85;;;;;;;-145.63;48.60;39153.31;5076700;28;20036;-65
2023/11/29 03:40:55;;;;;;;9.40;8.50;;;;;;;-145.63;48.83;39135.72;5081903;28;20078;-66
2023/11/29 03:43:21;;;;;;;9.50;8.60;;;;;;;-145.63;48.59;39129.84;5082708;28;20033;-65
2023/11/29 03:45:47;;;;;;;10.73;9.63;;;;;;;-145.63;48.88;39147.44;5080054;28;20038;-64
2023/11/29 03:48:13;;;;;;;9.70;8.80;;;;;;;-145.63;48.62;39180.69;5071025;28;20048;-65
2023/11/29 03:50:38;;;;;;;9.82;8.82;;;;;;;-145.63;48.89;39135.72;5076164;28;20025;-66
2023/11/29 03:53:04;;;;;;;9.95;8.95;;;;;;;-145.63;49.34;39129.84;5067255;28;20028;-66
2023/11/29 03:55:29;;;;;;;11.05;9.63;;;;;;;-145.63;49.32;39153.31;5086587;28;20297;-65
2023/11/29 03:57:55;;;;;;;10.25;9.18;;;;;;;-145.63;48.77;39151.38;5073962;28;20309;-65
2023/11/29 04:00:22;;;;;;;9.50;8.50;;;;;;;-145.63;48.79;39102.47;5085818;28;20035;-65
2023/11/29 04:02:48;;;;;;;11.57;9.88;;;;;;;-145.63;48.86;39123.97;5105398;28;20031;-66
2023/11/29 04:05:14;;;;;;;13.43;9.02;;;;;;;-145.63;48.31;39120.06;5086347;28;20213;-66
2023/11/29 04:07:40;;;;;;;10.73;9.63;;;;;;;-145.63;49.00;39129.84;5085059;28;20546;-65
2023/11/29 04:10:06;;;;;;;10.40;8.88;;;;;;;-145.63;47.91;39192.44;5075119;28;20029;-65
2023/11/29 04:12:31;;;;;;;9.52;8.63;;;;;;;-145.63;47.28;39123.97;5084908;28;20028;-65
2023/11/29 04:14:57;;;;;;;11.55;8.95;;;;;;;-145.63;47.74;39120.06;5085461;28;20033;-67
2023/11/29 04:17:23;;;;;;;11.10;10.00;;;;;;;-145.63;48.54;39118.13;5086085;28;20040;-65
2023/11/29 04:19:49;;;;;;;10.77;9.68;;;;;;;-145.63;48.29;38973.41;5085623;28;20320;-65
2023/11/29 04:22:14;;;;;;;10.32;9.32;;;;;;;-145.63;46.94;39122.03;5084723;28;20035;-65
2023/11/29 04:24:40;;;;;;;11.05;9.95;;;;;;;-145.63;48.17;39120.06;5084514;28;20031;-64
2023/11/29 04:27:06;;;;;;;12.60;11.30;;;;;;;-145.63;47.97;39141.59;5085483;28;20020;-65
2023/11/29 04:29:31;;;;;;;12.95;11.65;;;;;;;-145.63;48.48;39139.63;5083230;28;20037;-65
2023/11/29 04:31:57;;;;;;;12.98;11.43;;;;;;;-145.63;47.93;39110.28;5084467;28;20020;-66
2023/11/29 04:34:23;;;;;;;13.18;11.65;;;;;;;-145.63;47.62;39139.63;5070915;28;20044;-66
2023/11/29 04:36:49;;;;;;;13.77;12.32;;;;;;;-145.63;47.48;39118.13;5081595;28;20055;-65
2023/11/29 04:39:14;;;;;;;13.50;12.10;;;;;;;-145.63;47.25;39094.66;5084994;28;20036;-64
2023/11/29 04:41:40;;;;;;;14.95;13.38;;;;;;;-145.63;47.66;39149.41;5079860;28;20028;-68
2023/11/29 04:44:08;;;;;;;16.27;14.02;;;;;;;-145.63;47.93;39122.03;5085170;28;20021;-66
2023/11/29 04:46:35;;;;;;;15.00;13.40;;;;;;;-145.63;47.87;39133.75;5076446;28;20025;-65
2023/11/29 04:49:01;;;;;;;17.08;14.77;;;;;;;-145.63;47.85;39102.47;5074412;28;20028;-66
2023/11/29 04:51:26;;;;;;;16.08;14.38;;;;;;;-145.63;47.02;39176.78;5085143;28;20074;-66
2023/11/29 04:53:52;;;;;;;16.23;14.20;;;;;;;-145.63;47.76;39123.97;5084904;28;20209;-66
2023/11/29 04:56:18;;;;;;;16.08;14.48;;;;;;;-145.63;47.79;39143.53;5084929;28;20036;-66
2023/11/29 04:58:46;;;;;;;19.33;15.70;;;;;;;-145.63;48.16;39143.53;5083391;28;20083;-68
2023/11/29 05:01:12;;;;;;;17.38;15.15;;;;;;;-145.63;47.49;39114.22;5083359;28;20028;-65
2023/11/29 05:03:39;;;;;;;18.27;16.38;;;;;;;-145.63;47.92;39116.16;5089631;28;20032;-65
2023/11/29 05:06:06;;;;;;;17.95;16.05;;;;;;;-145.63;48.02;39129.84;5084584;28;20182;-65
2023/11/29 05:08:32;;;;;;;21.05;16.83;;;;;;;-145.63;47.85;39116.16;5080674;28;20347;-65
2023/11/29 05:11:01;;;;;;;18.45;16.55;;;;;;;-145.63;48.32;39096.59;5085015;28;20055;-65
2023/11/29 05:13:27;;;;;;;16.88;15.07;;;;;;;-145.63;48.27;39120.06;5084621;28;20066;-66
2023/11/29 05:15:53;;;;;;;18.85;16.40;;;;;;;-145.63;47.41;39153.31;5063848;28;20449;-66
2023/11/29 05:18:19;;;;;;;17.70;15.85;;;;;;;-145.63;48.19;39135.72;5073333;28;20043;-65
2023/11/29 05:20:44;;;;;;;19.55;17.55;;;;;;;-145.63;47.42;39137.69;5071241;28;20213;-64
2023/11/29 05:23:10;;;;;;;19.15;16.92;;;;;;;-145.63;48.09;39129.84;5080148;28;20020;-66
2023/11/29 05:25:36;;;;;;;17.90;16.00;;;;;;;-145.63;47.95;39118.13;5084568;28;20027;-66
2023/11/29 05:28:02;;;;;;;18.10;16.27;;;;;;;-145.63;48.54;39167.00;5083601;28;20305;-65
2023/11/29 05:30:28;;;;;;;17.55;15.75;;;;;;;-145.63;47.70;39116.16;5071916;28;20078;-66
2023/11/29 05:32:54;;;;;;;17.75;16.05;;;;;;;-145.63;47.76;39125.94;5071184;28;20095;-65
2023/11/29 05:35:20;;;;;;;18.98;16.48;;;;;;;-145.63;48.07;39112.25;5083147;28;20044;-66
2023/11/29 05:37:45;;;;;;;17.80;15.40;;;;;;;-145.63;48.16;39071.19;5064315;28;20024;-66
2023/11/29 05:40:11;;;;;;;19.05;16.90;;;;;;;-145.63;48.55;39116.16;5081802;28;20024;-67
2023/11/29 05:42:40;;;;;;;17.10;15.30;;;;;;;-145.63;47.76;39094.66;5070490;28;20336;-66
2023/11/29 05:45:09;;;;;;;17.15;15.48;;;;;;;-145.63;48.31;39110.28;5073916;28;20024;-66
2023/11/29 05:47:35;;;;;;;18.90;16.60;;;;;;;-145.63;48.29;39110.28;5078267;28;20359;-66
2023/11/29 05:50:02;;;;;;;17.02;15.20;;;;;;;-145.63;48.10;39092.69;5078968;28;20020;-66
2023/11/29 05:52:30;;;;;;;18.10;16.20;;;;;;;-145.63;48.98;39123.97;5084418;28;20028;-66
2023/11/29 05:54:56;;;;;;;17.42;15.57;;;;;;;-145.63;48.48;38654.66;5067916;28;20029;-66
2023/11/29 05:57:21;;;;;;;17.58;15.65;;;;;;;-145.63;48.97;39094.66;5075734;28;20024;-66
2023/11/29 05:59:47;;;;;;;17.35;15.45;;;;;;;-145.63;48.64;39092.69;5077306;28;20021;-65
2023/11/29 06:02:13;;;;;;;18.17;16.27;;;;;;;-145.63;48.73;39096.59;5067825;28;20070;-66
2023/11/29 06:04:38;;;;;;;18.58;16.65;;;;;;;-145.63;48.16;38934.28;5085953;28;20017;-67
2023/11/29 06:07:04;;;;;;;18.60;16.67;;;;;;;-145.63;49.01;38983.19;5065748;28;20105;-67
2023/11/29 06:09:31;;;;;;;16.65;14.90;;;;;;;-145.63;48.41;38977.31;5076059;28;20020;-65
2023/11/29 06:11:59;;;;;;;17.98;15.90;;;;;;;-145.63;48.94;39071.19;5083174;28;20297;-66
2023/11/29 06:14:25;;;;;;;18.50;16.33;;;;;;;-145.63;50.24;39051.63;5081672;28;20025;-66
2023/11/29 06:16:52;;;;;;;18.33;16.02;;;;;;;-145.63;49.82;39090.75;5081767;28;20330;-66
2023/11/29 06:19:18;;;;;;;17.52;15.60;;;;;;;-145.63;49.73;39032.06;5081610;28;20032;-65
2023/11/29 06:21:44;;;;;;;18.42;16.42;;;;;;;-145.63;49.02;39059.44;5082961;28;20020;-65
2023/11/29 06:24:10;;;;;;;18.80;16.70;;;;;;;-145.63;49.77;39102.47;5082556;28;20023;-65
2023/11/29 06:26:40;;;;;;;20.73;17.40;;;;;;;-145.63;49.47;39108.34;5083579;28;20084;-67
2023/11/29 06:29:09;;;;;;;18.90;15.63;;;;;;;-145.63;48.94;39061.41;5083365;28;20025;-66
2023/11/29 06:31:37;;;;;;;16.95;15.15;;;;;;;-145.63;48.77;39059.44;5083288;28;20044;-66
2023/11/29 06:34:05;;;;;;;18.05;16.15;;;;;;;-145.63;48.71;39094.66;5082731;28;20023;-66
2023/11/29 06:36:31;;;;;;;16.83;15.07;;;;;;;-145.63;48.67;39055.53;5064835;28;20020;-66
2023/11/29 06:38:57;;;;;;;19.77;16.20;;;;;;;-145.63;48.33;39043.81;5082172;28;20042;-65
2023/11/29 06:41:23;;;;;;;16.52;13.95;;;;;;;-145.63;49.31;39059.44;5082954;28;20020;-66
2023/11/29 06:43:48;;;;;;;12.45;11.15;;;;;;;-145.63;48.98;39065.31;5082688;28;20050;-66
2023/11/29 06:46:14;;;;;;;15.02;13.45;;;;;;;-145.63;48.55;39084.88;5082725;28;20027;-65
2023/11/29 06:48:39;;;;;;;14.52;13.02;;;;;;;-145.63;48.39;39080.97;5082538;28;20201;-65
2023/11/29 06:51:05;;;;;;;16.00;14.00;;;;;;;-145.63;48.27;39069.22;5082326;28;20028;-66
2023/11/29 06:53:33;;;;;;;14.77;13.07;;;;;;;-145.63;48.57;39094.66;5080028;28;20180;-66
2023/11/29 06:55:59;;;;;;;17.75;14.80;;;;;;;-145.63;48.87;39067.28;5081454;28;20028;-66
2023/11/29 06:58:25;;;;;;;16.10;14.05;;;;;;;-145.63;48.35;39057.50;5082242;28;20020;-66
2023/11/29 07:00:52;;;;;;;15.63;14.02;;;;;;;-145.63;49.15;39032.06;5082208;28;20320;-66
2023/11/29 07:03:18;;;;;;;15.27;13.40;;;;;;;-145.63;49.48;39075.09;5082068;28;20031;-66
2023/11/29 07:05:43;;;;;;;16.23;14.45;;;;;;;-145.63;49.91;39077.06;5080494;28;20241;-67
2023/11/29 07:08:09;;;;;;;16.70;14.70;;;;;;;-145.63;49.57;39059.44;5080933;28;20029;-66
2023/11/29 07:10:35;;;;;;;19.23;15.63;;;;;;;-145.63;49.67;39080.97;5081609;28;20036;-66
2023/11/29 07:13:00;;;;;;;17.33;15.30;;;;;;;-145.63;49.03;39094.66;5080981;28;20308;-66
2023/11/29 07:15:26;;;;;;;17.10;14.07;;;;;;;-145.63;49.25;39069.22;5081766;28;20311;-66
2023/11/29 07:17:53;;;;;;;18.02;13.90;;;;;;;-145.63;49.74;39053.59;5079307;28;20020;-66
2023/11/29 07:20:19;;;;;;;16.10;13.70;;;;;;;-145.63;49.72;39049.66;5079957;28;20070;-68
2023/11/29 07:22:45;;;;;;;15.73;13.25;;;;;;;-145.63;49.71;39032.06;5080583;28;20250;-66
2023/11/29 07:25:12;;;;;;;15.32;13.77;;;;;;;-145.63;49.11;39055.53;5080465;28;20020;-66
2023/11/29 07:27:39;;;;;;;16.90;13.73;;;;;;;-145.63;49.73;39065.31;5080953;28;20028;-67
2023/11/29 07:30:06;;;;;;;16.60;14.50;;;;;;;-145.63;50.05;39071.19;5081328;28;20258;-67
2023/11/29 07:32:32;;;;;;;16.08;13.13;;;;;;;-145.63;49.13;38875.63;5078546;28;20088;-66
2023/11/29 07:34:58;;;;;;;17.15;13.55;;;;;;;-145.63;49.47;39051.63;5063763;28;20037;-67
2023/11/29 07:37:26;;;;;;;15.63;13.90;;;;;;;-145.63;50.17;39059.44;5080934;28;20041;-66
2023/11/29 07:39:52;;;;;;;15.63;13.35;;;;;;;-145.63;49.27;38764.16;5081016;28;20029;-67
2023/11/29 07:42:18;;;;;;;17.25;13.60;;;;;;;-145.63;49.65;39094.66;5080925;28;20294;-66
2023/11/29 07:44:43;;;;;;;14.75;13.25;;;;;;;-145.63;49.67;39055.53;5076647;28;20025;-67
2023/11/29 07:47:10;;;;;;;16.85;14.45;;;;;;;-145.63;50.53;39000.78;5077177;28;20051;-66
2023/11/29 07:49:36;;;;;;;16.08;13.25;;;;;;;-145.63;50.34;39075.09;5082220;28;20196;-68
2023/11/29 07:52:02;;;;;;;16.38;13.13;;;;;;;-145.63;50.57;38961.66;5080681;28;20055;-67
2023/11/29 07:54:28;;;;;;;18.08;14.23;;;;;;;-145.63;50.25;39061.41;5070551;28;20044;-67
2023/11/29 07:56:54;;;;;;;20.48;14.55;;;;;;;-145.63;49.59;39061.41;5068393;28;20319;-67
2023/11/29 07:59:19;;;;;;;21.02;15.07;;;;;;;-145.63;49.63;39055.53;5081935;28;20020;-68
2023/11/29 08:01:45;;;;;;;18.30;13.85;;;;;;;-145.63;49.75;39063.34;5082619;28;20197;-67
2023/11/29 08:04:11;;;;;;;19.52;14.18;;;;;;;-145.63;49.46;39092.69;5096111;28;20031;-67
2023/11/29 08:06:36;;;;;;;17.23;14.13;;;;;;;-145.63;50.37;39080.97;5073423;28;20031;-67
2023/11/29 08:09:03;;;;;;;19.17;14.13;;;;;;;-145.63;50.21;39069.22;5070918;28;20243;-66
2023/11/29 08:11:29;;;;;;;17.33;13.98;;;;;;;-145.63;50.34;39086.81;5072429;28;20047;-67
2023/11/29 08:13:55;;;;;;;17.77;14.73;;;;;;;-145.63;50.71;39069.22;5082019;28;20017;-66
2023/11/29 08:16:21;;;;;;;17.33;15.43;;;;;;;-145.63;50.51;39057.50;5069518;28;20347;-67
2023/11/29 08:18:47;;;;;;;18.05;14.80;;;;;;;-145.63;50.22;39077.06;5074317;28;20032;-66
2023/11/29 08:21:13;;;;;;;17.48;14.93;;;;;;;-145.63;49.88;39086.81;5079335;28;20025;-66
2023/11/29 08:23:39;;;;;;;17.25;15.25;;;;;;;-145.63;50.77;39067.28;5078195;28;20024;-67
2023/11/29 08:26:04;;;;;;;18.52;14.65;;;;;;;-145.63;50.78;39039.88;5060299;28;20351;-68
2023/11/29 08:28:30;;;;;;;17.92;15.15;;;;;;;-145.63;50.89;39073.13;5066630;28;20032;-67
2023/11/29 08:30:56;;;;;;;17.05;14.45;;;;;;;-145.63;50.84;39077.06;5075428;28;20305;-66
2023/11/29 08:33:22;;;;;;;18.70;16.50;;;;;;;-145.63;50.70;39065.31;5080623;28;20070;-67
2023/11/29 08:35:47;;;;;;;19.20;15.38;;;;;;;-145.63;50.70;39069.22;5076307;28;20060;-67
2023/11/29 08:38:14;;;;;;;18.45;16.33;;;;;;;-145.63;51.73;39127.91;5079096;28;20033;-66
2023/11/29 08:40:40;;;;;;;18.58;16.30;;;;;;;-145.63;51.66;39051.63;5084981;28;20356;-66
2023/11/29 08:43:06;;;;;;;20.08;16.00;;;;;;;-145.63;51.14;38852.16;5068114;28;20088;-67
2023/11/29 08:45:33;;;;;;;20.00;17.80;;;;;;;-145.63;51.56;39063.34;5075733;28;20036;-67
2023/11/29 08:47:59;;;;;;;22.77;18.00;;;;;;;-145.63;50.99;39098.56;5084380;28;20024;-66
2023/11/29 08:50:25;;;;;;;20.50;17.95;;;;;;;-145.63;51.01;39079.00;5084078;28;20028;-66
2023/11/29 08:52:51;;;;;;;21.17;17.25;;;;;;;-145.63;51.52;39092.69;5085350;28;20443;-66
2023/11/29 08:55:17;;;;;;;19.88;17.10;;;;;;;-145.63;50.94;39067.28;5084914;28;20032;-66
2023/11/29 08:57:43;;;;;;;18.42;16.35;;;;;;;-145.63;52.00;39100.50;5071292;28;20032;-67
2023/11/29 09:00:10;;;;;;;20.50;17.77;;;;;;;-145.63;51.23;39086.81;5071950;28;20055;-67
2023/11/29 09:02:38;;;;;;;20.48;17.88;;;;;;;-145.63;51.08;39090.75;5088567;28;20035;-66
2023/11/29 09:05:04;;;;;;;20.35;18.13;;;;;;;-145.63;51.30;39098.56;5105345;28;20324;-67
2023/11/29 09:07:31;;;;;;;27.17;18.95;;;;;;;-145.63;51.28;39141.59;5084287;28;20035;-66
2023/11/29 09:09:58;;;;;;;18.58;16.25;;;;;;;-145.63;51.41;39123.97;5084183;28;20036;-66
2023/11/29 09:12:27;;;;;;;21.33;17.02;;;;;;;-145.63;52.65;39110.28;5081939;28;20017;-66
2023/11/29 09:14:56;;;;;;;18.25;16.08;;;;;;;-145.63;52.15;39088.78;5084643;28;20296;-66
2023/11/29 09:17:25;;;;;;;20.13;16.17;;;;;;;-145.63;52.91;39073.13;5078820;28;20047;-67
2023/11/29 09:19:53;;;;;;;17.75;15.85;;;;;;;-145.63;52.56;39104.44;5064730;28;20328;-67
2023/11/29 09:22:21;;;;;;;23.52;17.50;;;;;;;-145.63;52.33;39080.97;5064424;28;20189;-67
2023/11/29 09:24:51;;;;;;;19.80;15.55;;;;;;;-145.63;52.61;39116.16;5077547;28;20213;-66
2023/11/29 09:27:17;;;;;;;17.35;14.75;;;;;;;-145.63;52.85;39096.59;5084767;28;20052;-67
2023/11/29 09:29:44;;;;;;;20.58;16.58;;;;;;;-145.63;52.72;39143.53;5080447;28;20017;-66
2023/11/29 09:32:09;;;;;;;19.05;15.57;;;;;;;-145.63;52.10;39118.13;5064660;28;20024;-67
2023/11/29 09:34:35;;;;;;;18.25;14.88;;;;;;;-145.63;52.21;39116.16;5082535;28;20048;-65
2023/11/29 09:37:00;;;;;;;19.00;16.13;;;;;;;-145.63;52.46;38799.34;5069456;28;20053;-67
2023/11/29 09:39:33;;;;;;;18.48;14.48;;;;;;;-145.63;52.87;39071.19;5074407;28;20032;-66
2023/11/29 09:42:03;;;;;;;20.63;16.55;;;;;;;-145.63;52.94;39090.75;5081919;28;20099;-66
2023/11/29 09:44:31;;;;;;;20.98;15.93;;;;;;;-145.63;52.06;39108.34;5083133;28;20087;-67
2023/11/29 09:46:58;;;;;;;20.02;15.48;;;;;;;-145.63;52.67;39176.78;5083745;28;20024;-66
2023/11/29 09:49:27;;;;;;;18.73;15.95;;;;;;;-145.63;52.52;39020.34;5084529;28;20058;-66
2023/11/29 09:51:53;;;;;;;17.92;14.77;;;;;;;-145.63;52.30;39120.06;5104108;28;20047;-66
2023/11/29 09:54:18;;;;;;;21.17;16.55;;;;;;;-145.63;52.31;39108.34;5085160;28;20083;-67
2023/11/29 09:56:44;;;;;;;21.08;16.02;;;;;;;-145.63;51.75;39084.88;5079066;28;20087;-66
2023/11/29 09:59:10;;;;;;;18.20;15.80;;;;;;;-145.63;51.88;39035.97;5088962;28;20063;-67
2023/11/29 10:01:36;;;;;;;17.52;14.55;;;;;;;-145.63;52.17;39088.78;5088409;28;20325;-67
2023/11/29 10:04:08;;;;;;;19.10;15.88;;;;;;;-145.63;51.92;39110.28;5089776;28;20125;-67
2023/11/29 10:06:34;;;;;;;17.45;14.35;;;;;;;-145.63;52.32;39092.69;5094187;28;20038;-66
2023/11/29 10:09:11;;;;;;;18.67;14.27;;;;;;;-145.63;52.82;39094.66;5088261;28;20099;-66
2023/11/29 10:11:38;;;;;;;18.88;15.93;;;;;;;-145.63;52.14;39086.81;5091488;28;20036;-66
2023/11/29 10:14:06;;;;;;;20.63;16.80;;;;;;;-145.63;52.08;39116.16;5083427;28;20320;-67
2023/11/29 10:16:33;;;;;;;19.63;16.30;;;;;;;-145.63;51.94;39114.22;5081624;28;20055;-66
2023/11/29 10:19:04;;;;;;;20.20;17.23;;;;;;;-145.63;52.39;39110.28;5082005;28;20400;-66
2023/11/29 10:21:29;;;;;;;19.73;15.50;;;;;;;-145.63;53.09;39096.59;5082375;28;20104;-67
2023/11/29 10:23:55;;;;;;;20.33;15.52;;;;;;;-145.63;52.67;39104.44;5079595;28;20044;-66
2023/11/29 10:26:22;;;;;;;18.95;16.13;;;;;;;-145.63;53.84;39077.06;5082507;28;20036;-66
2023/11/29 10:28:48;;;;;;;20.58;16.75;;;;;;;-145.63;53.67;39131.81;5083189;28;20025;-68
2023/11/29 10:31:16;;;;;;;23.83;16.90;;;;;;;-145.63;53.96;39098.56;5081264;28;20024;-66
2023/11/29 10:33:45;;;;;;;19.30;16.80;;;;;;;-145.63;53.78;39086.81;5083078;28;20039;-66
2023/11/29 10:36:11;;;;;;;20.90;17.60;;;;;;;-145.63;53.94;39114.22;5082736;28;20106;-67
2023/11/29 10:38:45;;;;;;;20.45;16.77;;;;;;;-145.63;53.57;39131.81;5079996;28;20047;-67
2023/11/29 10:41:14;;;;;;;21.90;16.85;;;;;;;-145.63;54.46;39104.44;5064294;28;20522;-67
2023/11/29 10:43:42;;;;;;;21.10;17.70;;;;;;;-145.63;54.21;39020.34;5080010;28;20103;-68
2023/11/29 10:46:25;;;;;;;20.75;16.90;;;;;;;-145.63;54.02;39125.94;5077371;28;20099;-66
2023/11/29 10:48:59;;;;;;;20.75;17.42;;;;;;;-145.63;53.52;39114.22;5078993;28;20036;-66
2023/11/29 10:51:25;;;;;;;22.73;18.40;;;;;;;-145.63;53.88;39149.41;5082733;28;20311;-67
2023/11/29 10:53:52;;;;;;;22.33;18.63;;;;;;;-145.63;53.56;39139.63;5077526;28;20028;-66
2023/11/29 10:56:19;;;;;;;20.35;16.25;;;;;;;-145.63;53.29;39079.00;5061262;28;20055;-67
2023/11/29 10:58:51;;;;;;;21.15;17.65;;;;;;;-145.63;53.35;39110.28;5068857;28;20028;-67
2023/11/29 11:01:31;;;;;;;19.65;17.58;;;;;;;-145.63;53.63;39139.63;5090064;28;20037;-68
2023/11/29 11:03:59;;;;;;;18.92;16.25;;;;;;;-145.63;53.19;39125.94;5067953;28;20024;-66